College Grove, Tennessee
Current Conditions -  °F | °C
As of 11:53 AM on Thursday 29 Jan 2015 (Local Time) from KBNA Reporting Station
Scattered Clouds Scattered Clouds  
Wind Chill: 62°   Ceiling: Unl
Heat Index: 62°   Visibility: 10mi
Dew Point: 38°   Wind: 14mph
Humidity: 41%   Direction: 240°WSW
Pressure: 30.03"   Gusts: 21mph
Location:  35.79°N, 86.67°W
Report Text: KBNA 291753Z 24012G18KT 10SM FEW070 SCT200 17/03 A3003 RMK AO2 SLP167 60000 T01670033 10172 20089 58007
Loading
Personal Weather Stations






























Interactive Weather Map New forecast layout! Learn more

10-Day Weather Forecast

Advertisements
Track Severe Weather on mobile